sensor_id;sensor_type;location;lat;lon;timestamp;pressure;altitude;pressure_sealevel;temperature;humidity
48077;BME280;33854;57.708;12.008;2023-02-19T00:02:08;98577.06;;;0.33;100.00
48077;BME280;33854;57.708;12.008;2023-02-19T00:04:34;98577.81;;;0.35;100.00
48077;BME280;33854;57.708;12.008;2023-02-19T00:06:59;98585.41;;;0.38;100.00
48077;BME280;33854;57.708;12.008;2023-02-19T00:09:24;98590.38;;;0.42;100.00
48077;BME280;33854;57.708;12.008;2023-02-19T00:11:50;98610.91;;;0.42;100.00
48077;BME280;33854;57.708;12.008;2023-02-19T00:14:19;98615.19;;;0.42;100.00
48077;BME280;33854;57.708;12.008;2023-02-19T00:16:44;98620.22;;;0.45;100.00
48077;BME280;33854;57.708;12.008;2023-02-19T00:19:16;98627.13;;;0.43;100.00
48077;BME280;33854;57.708;12.008;2023-02-19T00:21:41;98621.56;;;0.32;100.00
48077;BME280;33854;57.708;12.008;2023-02-19T00:24:09;98618.88;;;0.35;100.00
48077;BME280;33854;57.708;12.008;2023-02-19T00:26:37;98629.97;;;0.35;100.00
48077;BME280;33854;57.708;12.008;2023-02-19T00:29:03;98617.91;;;0.37;100.00
48077;BME280;33854;57.708;12.008;2023-02-19T00:31:31;98627.25;;;0.40;100.00
48077;BME280;33854;57.708;12.008;2023-02-19T00:33:59;98623.88;;;0.38;100.00
48077;BME280;33854;57.708;12.008;2023-02-19T00:36:27;98638.59;;;0.34;100.00
48077;BME280;33854;57.708;12.008;2023-02-19T00:38:53;98640.44;;;0.31;100.00
48077;BME280;33854;57.708;12.008;2023-02-19T00:41:20;98632.22;;;0.21;100.00
48077;BME280;33854;57.708;12.008;2023-02-19T00:46:12;98634.88;;;0.20;100.00
48077;BME280;33854;57.708;12.008;2023-02-19T00:48:38;98610.97;;;0.18;100.00
48077;BME280;33854;57.708;12.008;2023-02-19T00:51:03;98610.97;;;0.18;100.00
48077;BME280;33854;57.708;12.008;2023-02-19T00:53:29;98603.25;;;0.19;100.00
48077;BME280;33854;57.708;12.008;2023-02-19T00:55:54;98595.47;;;0.21;100.00
48077;BME280;33854;57.708;12.008;2023-02-19T00:58:19;98597.88;;;0.25;100.00
48077;BME280;33854;57.708;12.008;2023-02-19T01:00:45;98592.75;;;0.25;100.00
48077;BME280;33854;57.708;12.008;2023-02-19T01:03:12;98590.00;;;0.30;100.00
48077;BME280;33854;57.708;12.008;2023-02-19T01:05:38;98580.38;;;0.35;100.00
48077;BME280;33854;57.708;12.008;2023-02-19T01:08:03;98582.84;;;0.38;100.00
48077;BME280;33854;57.708;12.008;2023-02-19T01:10:30;98571.81;;;0.36;100.00
48077;BME280;33854;57.708;12.008;2023-02-19T01:12:55;98543.94;;;0.27;100.00
48077;BME280;33854;57.708;12.008;2023-02-19T01:15:20;98572.44;;;0.41;100.00
48077;BME280;33854;57.708;12.008;2023-02-19T01:17:46;98567.41;;;0.39;100.00
48077;BME280;33854;57.708;12.008;2023-02-19T01:20:11;98580.00;;;0.45;100.00
48077;BME280;33854;57.708;12.008;2023-02-19T01:22:37;98574.06;;;0.43;100.00
48077;BME280;33854;57.708;12.008;2023-02-19T01:25:02;98576.47;;;0.48;100.00
48077;BME280;33854;57.708;12.008;2023-02-19T01:27:27;98570.56;;;0.46;100.00
48077;BME280;33854;57.708;12.008;2023-02-19T01:29:53;98577.34;;;0.47;100.00
48077;BME280;33854;57.708;12.008;2023-02-19T01:32:18;98566.31;;;0.45;100.00
48077;BME280;33854;57.708;12.008;2023-02-19T01:34:44;98578.25;;;0.46;100.00
48077;BME280;33854;57.708;12.008;2023-02-19T01:37:09;98582.59;;;0.44;100.00
48077;BME280;33854;57.708;12.008;2023-02-19T01:39:36;98586.25;;;0.38;100.00
48077;BME280;33854;57.708;12.008;2023-02-19T01:42:03;98585.59;;;0.33;100.00
48077;BME280;33854;57.708;12.008;2023-02-19T01:46:54;98584.00;;;0.31;100.00
48077;BME280;33854;57.708;12.008;2023-02-19T01:49:33;98576.41;;;0.28;100.00
48077;BME280;33854;57.708;12.008;2023-02-19T01:52:08;98570.38;;;0.29;100.00
48077;BME280;33854;57.708;12.008;2023-02-19T01:54:38;98571.16;;;0.31;100.00
48077;BME280;33854;57.708;12.008;2023-02-19T01:57:08;98581.34;;;0.32;100.00
48077;BME280;33854;57.708;12.008;2023-02-19T01:59:35;98591.91;;;0.25;100.00
48077;BME280;33854;57.708;12.008;2023-02-19T02:02:02;98577.53;;;0.21;100.00
48077;BME280;33854;57.708;12.008;2023-02-19T02:04:29;98582.06;;;0.14;100.00
48077;BME280;33854;57.708;12.008;2023-02-19T02:06:56;98591.66;;;0.09;100.00
48077;BME280;33854;57.708;12.008;2023-02-19T02:09:26;98577.97;;;-0.13;100.00
48077;BME280;33854;57.708;12.008;2023-02-19T02:12:11;98581.25;;;-0.10;100.00
48077;BME280;33854;57.708;12.008;2023-02-19T02:14:40;98583.28;;;-0.18;100.00
48077;BME280;33854;57.708;12.008;2023-02-19T02:22:19;98546.44;;;-0.62;100.00
48077;BME280;33854;57.708;12.008;2023-02-19T02:30:40;98503.72;;;-0.84;100.00
48077;BME280;33854;57.708;12.008;2023-02-19T02:35:46;98504.38;;;-0.79;100.00
48077;BME280;33854;57.708;12.008;2023-02-19T02:38:14;98489.97;;;-0.82;100.00
48077;BME280;33854;57.708;12.008;2023-02-19T02:40:43;98481.50;;;-0.84;100.00
48077;BME280;33854;57.708;12.008;2023-02-19T02:43:09;98466.38;;;-0.90;100.00
48077;BME280;33854;57.708;12.008;2023-02-19T02:45:35;98427.03;;;-0.89;100.00
48077;BME280;33854;57.708;12.008;2023-02-19T02:48:18;98383.88;;;-0.98;100.00
48077;BME280;33854;57.708;12.008;2023-02-19T02:50:49;98354.34;;;-1.06;100.00
48077;BME280;33854;57.708;12.008;2023-02-19T02:53:21;98294.91;;;-1.15;100.00
48077;BME280;33854;57.708;12.008;2023-02-19T02:56:06;98257.78;;;-1.25;100.00
48077;BME280;33854;57.708;12.008;2023-02-19T02:58:34;98265.66;;;-1.31;100.00
48077;BME280;33854;57.708;12.008;2023-02-19T03:01:04;98248.81;;;-1.36;100.00
48077;BME280;33854;57.708;12.008;2023-02-19T03:03:55;98228.69;;;-1.45;100.00
48077;BME280;33854;57.708;12.008;2023-02-19T03:06:23;98211.63;;;-1.45;100.00
48077;BME280;33854;57.708;12.008;2023-02-19T03:11:21;98226.22;;;-1.47;100.00
48077;BME280;33854;57.708;12.008;2023-02-19T03:14:10;98249.16;;;-1.45;100.00
48077;BME280;33854;57.708;12.008;2023-02-19T03:16:59;98265.06;;;-1.37;100.00
48077;BME280;33854;57.708;12.008;2023-02-19T03:19:49;98291.28;;;-1.09;100.00
48077;BME280;33854;57.708;12.008;2023-02-19T03:22:21;98327.59;;;-0.99;100.00
48077;BME280;33854;57.708;12.008;2023-02-19T03:24:55;98359.56;;;-0.86;100.00
48077;BME280;33854;57.708;12.008;2023-02-19T03:27:42;98386.53;;;-0.78;100.00
48077;BME280;33854;57.708;12.008;2023-02-19T03:30:16;98422.22;;;-0.73;100.00
48077;BME280;33854;57.708;12.008;2023-02-19T03:32:50;98432.28;;;-0.69;100.00
48077;BME280;33854;57.708;12.008;2023-02-19T03:35:22;98448.56;;;-0.70;100.00
48077;BME280;33854;57.708;12.008;2023-02-19T03:37:56;98475.66;;;-0.64;100.00
48077;BME280;33854;57.708;12.008;2023-02-19T03:40:28;98504.09;;;-0.72;100.00
48077;BME280;33854;57.708;12.008;2023-02-19T03:45:35;98439.84;;;-0.89;100.00
48077;BME280;33854;57.708;12.008;2023-02-19T03:56:05;98467.19;;;-1.12;100.00
48077;BME280;33854;57.708;12.008;2023-02-19T03:58:50;98415.59;;;-1.25;100.00
48077;BME280;33854;57.708;12.008;2023-02-19T04:04:17;98408.97;;;-1.31;100.00
48077;BME280;33854;57.708;12.008;2023-02-19T04:06:47;98421.09;;;-1.36;100.00
48077;BME280;33854;57.708;12.008;2023-02-19T04:09:18;98428.13;;;-1.42;100.00
48077;BME280;33854;57.708;12.008;2023-02-19T04:11:45;98335.09;;;-1.40;100.00
48077;BME280;33854;57.708;12.008;2023-02-19T04:14:16;98328.66;;;-1.50;100.00
48077;BME280;33854;57.708;12.008;2023-02-19T04:16:48;98319.34;;;-1.52;100.00
48077;BME280;33854;57.708;12.008;2023-02-19T04:19:18;98299.16;;;-1.60;100.00
48077;BME280;33854;57.708;12.008;2023-02-19T04:21:45;98296.91;;;-1.69;100.00
48077;BME280;33854;57.708;12.008;2023-02-19T04:24:15;98304.69;;;-1.72;100.00
48077;BME280;33854;57.708;12.008;2023-02-19T04:26:44;98324.16;;;-1.68;100.00
48077;BME280;33854;57.708;12.008;2023-02-19T04:29:09;98335.28;;;-1.69;100.00
48077;BME280;33854;57.708;12.008;2023-02-19T04:31:35;98316.78;;;-1.76;100.00
48077;BME280;33854;57.708;12.008;2023-02-19T04:34:02;98269.75;;;-1.72;100.00
48077;BME280;33854;57.708;12.008;2023-02-19T04:36:29;98268.22;;;-1.77;100.00
48077;BME280;33854;57.708;12.008;2023-02-19T04:38:54;98258.78;;;-1.75;100.00
48077;BME280;33854;57.708;12.008;2023-02-19T04:41:19;98293.59;;;-1.71;100.00
48077;BME280;33854;57.708;12.008;2023-02-19T04:43:45;98337.63;;;-1.63;100.00
48077;BME280;33854;57.708;12.008;2023-02-19T04:46:10;98345.41;;;-1.66;100.00
48077;BME280;33854;57.708;12.008;2023-02-19T04:48:36;98356.66;;;-1.72;100.00
48077;BME280;33854;57.708;12.008;2023-02-19T04:51:08;98361.75;;;-1.70;100.00
48077;BME280;33854;57.708;12.008;2023-02-19T04:53:35;98364.34;;;-1.72;100.00
48077;BME280;33854;57.708;12.008;2023-02-19T04:56:12;98389.78;;;-1.67;100.00
48077;BME280;33854;57.708;12.008;2023-02-19T04:58:38;98421.03;;;-1.59;100.00
48077;BME280;33854;57.708;12.008;2023-02-19T05:01:05;98448.22;;;-1.56;100.00
48077;BME280;33854;57.708;12.008;2023-02-19T05:03:31;98471.41;;;-1.61;100.00
48077;BME280;33854;57.708;12.008;2023-02-19T05:06:01;98468.94;;;-1.64;100.00
48077;BME280;33854;57.708;12.008;2023-02-19T05:08:27;98448.72;;;-1.72;100.00
48077;BME280;33854;57.708;12.008;2023-02-19T05:10:56;98438.19;;;-1.62;100.00
48077;BME280;33854;57.708;12.008;2023-02-19T05:13:23;98433.56;;;-1.51;100.00
48077;BME280;33854;57.708;12.008;2023-02-19T05:16:00;98438.25;;;-1.39;100.00
48077;BME280;33854;57.708;12.008;2023-02-19T05:18:26;98469.59;;;-1.33;100.00
48077;BME280;33854;57.708;12.008;2023-02-19T05:20:52;98485.63;;;-1.28;100.00
48077;BME280;33854;57.708;12.008;2023-02-19T05:23:19;98499.34;;;-1.30;100.00
48077;BME280;33854;57.708;12.008;2023-02-19T05:25:45;98493.59;;;-1.37;100.00
48077;BME280;33854;57.708;12.008;2023-02-19T05:28:10;98481.00;;;-1.43;100.00
48077;BME280;33854;57.708;12.008;2023-02-19T05:30:46;98469.31;;;-1.50;100.00
48077;BME280;33854;57.708;12.008;2023-02-19T05:33:13;98471.34;;;-1.59;100.00
48077;BME280;33854;57.708;12.008;2023-02-19T05:35:49;98450.44;;;-1.72;100.00
48077;BME280;33854;57.708;12.008;2023-02-19T05:38:16;98449.47;;;-1.68;100.00
48077;BME280;33854;57.708;12.008;2023-02-19T05:40:42;98434.09;;;-1.66;100.00
48077;BME280;33854;57.708;12.008;2023-02-19T05:43:08;98417.81;;;-1.64;100.00
48077;BME280;33854;57.708;12.008;2023-02-19T05:45:34;98413.56;;;-1.65;100.00
48077;BME280;33854;57.708;12.008;2023-02-19T05:48:00;98402.47;;;-1.64;100.00
48077;BME280;33854;57.708;12.008;2023-02-19T05:50:26;98425.41;;;-1.62;100.00
48077;BME280;33854;57.708;12.008;2023-02-19T05:52:52;98454.41;;;-1.63;100.00
48077;BME280;33854;57.708;12.008;2023-02-19T05:55:18;98449.56;;;-1.71;100.00
48077;BME280;33854;57.708;12.008;2023-02-19T05:57:45;98453.06;;;-1.74;100.00
48077;BME280;33854;57.708;12.008;2023-02-19T06:00:13;98424.25;;;-1.79;100.00
48077;BME280;33854;57.708;12.008;2023-02-19T06:02:39;98392.00;;;-1.83;100.00
48077;BME280;33854;57.708;12.008;2023-02-19T06:05:05;98318.03;;;-1.87;100.00
48077;BME280;33854;57.708;12.008;2023-02-19T06:07:31;98319.00;;;-1.91;100.00
48077;BME280;33854;57.708;12.008;2023-02-19T06:09:57;98333.72;;;-1.98;100.00
48077;BME280;33854;57.708;12.008;2023-02-19T06:12:23;98339.00;;;-2.02;100.00
48077;BME280;33854;57.708;12.008;2023-02-19T06:14:49;98302.75;;;-2.13;100.00
48077;BME280;33854;57.708;12.008;2023-02-19T06:17:14;98295.91;;;-2.13;100.00
48077;BME280;33854;57.708;12.008;2023-02-19T06:19:40;98292.56;;;-2.15;100.00
48077;BME280;33854;57.708;12.008;2023-02-19T06:22:06;98262.47;;;-2.32;100.00
48077;BME280;33854;57.708;12.008;2023-02-19T06:24:32;98270.41;;;-2.14;100.00
48077;BME280;33854;57.708;12.008;2023-02-19T06:26:57;98297.84;;;-2.19;100.00
48077;BME280;33854;57.708;12.008;2023-02-19T06:29:23;98280.72;;;-2.17;100.00
48077;BME280;33854;57.708;12.008;2023-02-19T06:31:49;98250.88;;;-2.15;100.00
48077;BME280;33854;57.708;12.008;2023-02-19T06:34:14;98253.25;;;-2.11;100.00
48077;BME280;33854;57.708;12.008;2023-02-19T06:36:40;98247.00;;;-2.02;100.00
48077;BME280;33854;57.708;12.008;2023-02-19T06:39:05;98275.34;;;-1.85;100.00
48077;BME280;33854;57.708;12.008;2023-02-19T06:41:31;98303.28;;;-1.81;100.00
48077;BME280;33854;57.708;12.008;2023-02-19T06:43:57;98327.94;;;-1.78;100.00
48077;BME280;33854;57.708;12.008;2023-02-19T06:46:23;98354.81;;;-1.66;100.00
48077;BME280;33854;57.708;12.008;2023-02-19T06:48:48;98393.84;;;-1.61;100.00
48077;BME280;33854;57.708;12.008;2023-02-19T06:51:16;98367.47;;;-1.63;100.00
48077;BME280;33854;57.708;12.008;2023-02-19T06:53:51;98388.75;;;-1.63;100.00
48077;BME280;33854;57.708;12.008;2023-02-19T06:58:51;98394.72;;;-1.62;100.00
48077;BME280;33854;57.708;12.008;2023-02-19T07:01:16;98366.75;;;-1.67;100.00
48077;BME280;33854;57.708;12.008;2023-02-19T07:03:42;98426.03;;;-1.56;100.00
48077;BME280;33854;57.708;12.008;2023-02-19T07:06:07;98470.97;;;-1.49;100.00
48077;BME280;33854;57.708;12.008;2023-02-19T07:08:33;98503.16;;;-1.42;100.00
48077;BME280;33854;57.708;12.008;2023-02-19T07:10:58;98535.41;;;-1.38;100.00
48077;BME280;33854;57.708;12.008;2023-02-19T07:13:25;98531.97;;;-1.37;100.00
48077;BME280;33854;57.708;12.008;2023-02-19T07:15:51;98543.81;;;-1.34;100.00
48077;BME280;33854;57.708;12.008;2023-02-19T07:18:21;98546.38;;;-1.34;100.00
48077;BME280;33854;57.708;12.008;2023-02-19T07:20:47;98562.31;;;-1.26;100.00
48077;BME280;33854;57.708;12.008;2023-02-19T07:23:12;98574.31;;;-1.27;100.00
48077;BME280;33854;57.708;12.008;2023-02-19T07:25:38;98614.81;;;-1.15;100.00
48077;BME280;33854;57.708;12.008;2023-02-19T07:28:04;98639.34;;;-1.07;100.00
48077;BME280;33854;57.708;12.008;2023-02-19T07:30:30;98679.97;;;-0.97;100.00
48077;BME280;33854;57.708;12.008;2023-02-19T07:32:55;98707.69;;;-0.83;100.00
48077;BME280;33854;57.708;12.008;2023-02-19T07:35:21;98742.56;;;-0.79;100.00
48077;BME280;33854;57.708;12.008;2023-02-19T07:37:46;98779.59;;;-0.63;100.00
48077;BME280;33854;57.708;12.008;2023-02-19T07:40:12;98825.41;;;-0.54;100.00
48077;BME280;33854;57.708;12.008;2023-02-19T07:42:37;98861.09;;;-0.48;100.00
48077;BME280;33854;57.708;12.008;2023-02-19T07:45:03;98892.44;;;-0.40;100.00
48077;BME280;33854;57.708;12.008;2023-02-19T07:47:28;98933.16;;;-0.31;100.00
48077;BME280;33854;57.708;12.008;2023-02-19T07:49:54;98963.63;;;-0.20;100.00
48077;BME280;33854;57.708;12.008;2023-02-19T07:52:19;98968.63;;;-0.17;100.00
48077;BME280;33854;57.708;12.008;2023-02-19T07:54:44;98969.19;;;-0.08;100.00
48077;BME280;33854;57.708;12.008;2023-02-19T07:57:10;98996.19;;;0.04;100.00
48077;BME280;33854;57.708;12.008;2023-02-19T07:59:35;99029.34;;;0.10;100.00
48077;BME280;33854;57.708;12.008;2023-02-19T08:02:01;99072.84;;;0.13;100.00
48077;BME280;33854;57.708;12.008;2023-02-19T08:04:48;99123.66;;;0.30;100.00
48077;BME280;33854;57.708;12.008;2023-02-19T08:07:13;99172.06;;;0.42;100.00
48077;BME280;33854;57.708;12.008;2023-02-19T08:09:39;99184.78;;;0.45;100.00
48077;BME280;33854;57.708;12.008;2023-02-19T08:12:04;99207.81;;;0.46;100.00
48077;BME280;33854;57.708;12.008;2023-02-19T08:14:49;99193.16;;;0.51;100.00
48077;BME280;33854;57.708;12.008;2023-02-19T08:17:14;99216.91;;;0.58;100.00
48077;BME280;33854;57.708;12.008;2023-02-19T08:19:39;99231.44;;;0.59;100.00
48077;BME280;33854;57.708;12.008;2023-02-19T08:22:05;99230.50;;;0.62;100.00
48077;BME280;33854;57.708;12.008;2023-02-19T08:24:30;99221.19;;;0.57;100.00
48077;BME280;33854;57.708;12.008;2023-02-19T08:26:58;99239.13;;;0.59;100.00
48077;BME280;33854;57.708;12.008;2023-02-19T08:29:23;99248.44;;;0.63;100.00
48077;BME280;33854;57.708;12.008;2023-02-19T08:31:49;99254.28;;;0.67;100.00
48077;BME280;33854;57.708;12.008;2023-02-19T08:34:14;99274.63;;;0.74;100.00
48077;BME280;33854;57.708;12.008;2023-02-19T08:36:40;99288.94;;;0.81;100.00
48077;BME280;33854;57.708;12.008;2023-02-19T08:39:05;99323.00;;;0.88;100.00
48077;BME280;33854;57.708;12.008;2023-02-19T08:41:30;99351.00;;;0.97;100.00
48077;BME280;33854;57.708;12.008;2023-02-19T08:43:56;99361.81;;;1.06;100.00
48077;BME280;33854;57.708;12.008;2023-02-19T08:46:21;99382.22;;;1.12;100.00
48077;BME280;33854;57.708;12.008;2023-02-19T08:48:47;99389.72;;;1.20;100.00
48077;BME280;33854;57.708;12.008;2023-02-19T08:51:12;99408.34;;;1.27;100.00
48077;BME280;33854;57.708;12.008;2023-02-19T08:53:39;99457.66;;;1.39;100.00
48077;BME280;33854;57.708;12.008;2023-02-19T08:56:09;99499.47;;;1.46;100.00
48077;BME280;33854;57.708;12.008;2023-02-19T08:58:34;99551.53;;;1.52;100.00
48077;BME280;33854;57.708;12.008;2023-02-19T09:01:02;99640.41;;;1.62;100.00
48077;BME280;33854;57.708;12.008;2023-02-19T09:03:27;99677.13;;;1.67;100.00
48077;BME280;33854;57.708;12.008;2023-02-19T09:05:53;99709.53;;;1.75;100.00
48077;BME280;33854;57.708;12.008;2023-02-19T09:08:18;99760.69;;;1.85;100.00
48077;BME280;33854;57.708;12.008;2023-02-19T09:10:43;99804.22;;;1.93;100.00
48077;BME280;33854;57.708;12.008;2023-02-19T09:13:09;99800.41;;;2.07;100.00
48077;BME280;33854;57.708;12.008;2023-02-19T09:15:37;99829.88;;;2.29;100.00
48077;BME280;33854;57.708;12.008;2023-02-19T09:18:02;99931.50;;;2.49;100.00
48077;BME280;33854;57.708;12.008;2023-02-19T09:20:28;99960.34;;;2.61;100.00
48077;BME280;33854;57.708;12.008;2023-02-19T09:22:57;100021.06;;;2.71;100.00
48077;BME280;33854;57.708;12.008;2023-02-19T09:25:23;100043.97;;;2.82;100.00
48077;BME280;33854;57.708;12.008;2023-02-19T09:27:49;100087.13;;;2.74;100.00
48077;BME280;33854;57.708;12.008;2023-02-19T09:30:18;100091.78;;;2.94;100.00
48077;BME280;33854;57.708;12.008;2023-02-19T09:32:43;100093.31;;;3.01;100.00
48077;BME280;33854;57.708;12.008;2023-02-19T09:35:08;100116.53;;;3.01;100.00
48077;BME280;33854;57.708;12.008;2023-02-19T09:37:34;100092.16;;;3.12;100.00
48077;BME280;33854;57.708;12.008;2023-02-19T09:40:00;100100.66;;;3.16;100.00
48077;BME280;33854;57.708;12.008;2023-02-19T09:42:27;100092.19;;;3.11;100.00
48077;BME280;33854;57.708;12.008;2023-02-19T09:44:58;100115.38;;;3.12;100.00
48077;BME280;33854;57.708;12.008;2023-02-19T09:47:29;100091.25;;;3.13;100.00
48077;BME280;33854;57.708;12.008;2023-02-19T09:50:01;100102.34;;;3.17;100.00
48077;BME280;33854;57.708;12.008;2023-02-19T09:52:36;100096.34;;;3.16;100.00
48077;BME280;33854;57.708;12.008;2023-02-19T09:57:40;100098.19;;;3.11;100.00
48077;BME280;33854;57.708;12.008;2023-02-19T10:02:35;100099.41;;;3.30;100.00
48077;BME280;33854;57.708;12.008;2023-02-19T10:05:02;100102.72;;;3.35;100.00
48077;BME280;33854;57.708;12.008;2023-02-19T10:07:38;100088.94;;;3.36;100.00
48077;BME280;33854;57.708;12.008;2023-02-19T10:12:50;100084.91;;;3.59;100.00
48077;BME280;33854;57.708;12.008;2023-02-19T10:15:23;100075.84;;;3.73;100.00
48077;BME280;33854;57.708;12.008;2023-02-19T10:17:50;100085.38;;;3.71;100.00
48077;BME280;33854;57.708;12.008;2023-02-19T10:20:18;100081.91;;;3.72;100.00
48077;BME280;33854;57.708;12.008;2023-02-19T10:22:46;100096.00;;;3.61;100.00
48077;BME280;33854;57.708;12.008;2023-02-19T10:25:14;100071.72;;;3.68;100.00
48077;BME280;33854;57.708;12.008;2023-02-19T10:27:40;100045.44;;;3.84;100.00
48077;BME280;33854;57.708;12.008;2023-02-19T10:30:17;100027.13;;;3.92;100.00
48077;BME280;33854;57.708;12.008;2023-02-19T10:33:16;100014.81;;;4.01;100.00
48077;BME280;33854;57.708;12.008;2023-02-19T10:36:05;99975.63;;;4.41;100.00
48077;BME280;33854;57.708;12.008;2023-02-19T10:38:37;99955.19;;;4.60;100.00
48077;BME280;33854;57.708;12.008;2023-02-19T10:41:15;99928.06;;;4.72;100.00
48077;BME280;33854;57.708;12.008;2023-02-19T10:43:48;99906.16;;;4.58;100.00
48077;BME280;33854;57.708;12.008;2023-02-19T10:46:22;99947.41;;;4.62;100.00
48077;BME280;33854;57.708;12.008;2023-02-19T10:49:05;99962.84;;;4.63;100.00
48077;BME280;33854;57.708;12.008;2023-02-19T10:51:38;99969.06;;;4.57;100.00
48077;BME280;33854;57.708;12.008;2023-02-19T10:54:19;99980.44;;;4.52;100.00
48077;BME280;33854;57.708;12.008;2023-02-19T10:56:45;99987.09;;;4.59;100.00
48077;BME280;33854;57.708;12.008;2023-02-19T10:59:24;99997.81;;;4.73;100.00
48077;BME280;33854;57.708;12.008;2023-02-19T11:01:57;100032.91;;;4.80;100.00
48077;BME280;33854;57.708;12.008;2023-02-19T11:04:25;100062.25;;;4.79;100.00
48077;BME280;33854;57.708;12.008;2023-02-19T11:06:50;100053.53;;;4.82;100.00
48077;BME280;33854;57.708;12.008;2023-02-19T11:09:30;100047.22;;;4.90;100.00
48077;BME280;33854;57.708;12.008;2023-02-19T11:11:57;100055.59;;;4.97;100.00
48077;BME280;33854;57.708;12.008;2023-02-19T11:14:24;100047.72;;;5.00;100.00
48077;BME280;33854;57.708;12.008;2023-02-19T11:16:55;100010.47;;;5.05;100.00
48077;BME280;33854;57.708;12.008;2023-02-19T11:21:53;100019.94;;;5.06;100.00
48077;BME280;33854;57.708;12.008;2023-02-19T11:24:40;100018.19;;;5.07;100.00
48077;BME280;33854;57.708;12.008;2023-02-19T11:27:12;100028.63;;;5.04;100.00
48077;BME280;33854;57.708;12.008;2023-02-19T11:29:41;100028.88;;;4.72;100.00
48077;BME280;33854;57.708;12.008;2023-02-19T11:32:24;100039.38;;;4.67;100.00
48077;BME280;33854;57.708;12.008;2023-02-19T11:34:51;100046.13;;;4.71;100.00
48077;BME280;33854;57.708;12.008;2023-02-19T11:37:17;99998.25;;;4.59;100.00
48077;BME280;33854;57.708;12.008;2023-02-19T11:39:47;99995.69;;;4.59;100.00
48077;BME280;33854;57.708;12.008;2023-02-19T11:42:35;99966.47;;;4.57;100.00
48077;BME280;33854;57.708;12.008;2023-02-19T11:45:44;99891.81;;;4.50;100.00
48077;BME280;33854;57.708;12.008;2023-02-19T11:51:16;99727.75;;;4.38;100.00
48077;BME280;33854;57.708;12.008;2023-02-19T11:53:47;99594.31;;;4.37;100.00
48077;BME280;33854;57.708;12.008;2023-02-19T11:56:19;99517.03;;;4.33;100.00
48077;BME280;33854;57.708;12.008;2023-02-19T12:02:18;99416.69;;;4.02;100.00
48077;BME280;33854;57.708;12.008;2023-02-19T12:04:53;99348.81;;;4.00;100.00
48077;BME280;33854;57.708;12.008;2023-02-19T12:26:29;99000.69;;;3.74;100.00
48077;BME280;33854;57.708;12.008;2023-02-19T12:34:53;98660.72;;;3.63;100.00
48077;BME280;33854;57.708;12.008;2023-02-19T12:40:16;98343.47;;;3.47;100.00
48077;BME280;33854;57.708;12.008;2023-02-19T12:43:11;98184.22;;;3.37;100.00
48077;BME280;33854;57.708;12.008;2023-02-19T12:45:44;97994.94;;;3.27;100.00
48077;BME280;33854;57.708;12.008;2023-02-19T12:50:38;97693.47;;;3.13;100.00
48077;BME280;33854;57.708;12.008;2023-02-19T12:53:10;97669.47;;;3.25;100.00
48077;BME280;33854;57.708;12.008;2023-02-19T12:55:43;97628.81;;;3.16;100.00
48077;BME280;33854;57.708;12.008;2023-02-19T12:58:40;97576.75;;;2.98;100.00
48077;BME280;33854;57.708;12.008;2023-02-19T13:01:04;97624.88;;;2.98;100.00
48077;BME280;33854;57.708;12.008;2023-02-19T13:03:37;97600.22;;;2.81;100.00
48077;BME280;33854;57.708;12.008;2023-02-19T13:08:55;97569.84;;;2.59;100.00
48077;BME280;33854;57.708;12.008;2023-02-19T13:11:34;97525.38;;;2.57;100.00
48077;BME280;33854;57.708;12.008;2023-02-19T13:16:47;97269.78;;;2.68;100.00
48077;BME280;33854;57.708;12.008;2023-02-19T13:19:14;97087.81;;;2.68;100.00
48077;BME280;33854;57.708;12.008;2023-02-19T13:21:41;96787.09;;;2.62;100.00
48077;BME280;33854;57.708;12.008;2023-02-19T13:24:33;96503.34;;;2.49;100.00
48077;BME280;33854;57.708;12.008;2023-02-19T13:27:23;96301.50;;;2.42;100.00
48077;BME280;33854;57.708;12.008;2023-02-19T13:30:19;96127.78;;;2.38;100.00
48077;BME280;33854;57.708;12.008;2023-02-19T13:32:54;96093.88;;;2.33;100.00
48077;BME280;33854;57.708;12.008;2023-02-19T13:38:09;95796.72;;;2.39;100.00
48077;BME280;33854;57.708;12.008;2023-02-19T13:40:38;95690.84;;;2.43;100.00
48077;BME280;33854;57.708;12.008;2023-02-19T13:43:06;95579.25;;;2.44;100.00
48077;BME280;33854;57.708;12.008;2023-02-19T13:45:42;95419.28;;;2.41;100.00
48077;BME280;33854;57.708;12.008;2023-02-19T13:48:26;95325.50;;;2.61;100.00
48077;BME280;33854;57.708;12.008;2023-02-19T14:14:41;93930.34;;;4.37;100.00
48077;BME280;33854;57.708;12.008;2023-02-19T14:17:29;93744.44;;;4.38;100.00
48077;BME280;33854;57.708;12.008;2023-02-19T14:30:58;93702.84;;;4.73;100.00
48077;BME280;33854;57.708;12.008;2023-02-19T14:33:33;93731.47;;;4.65;100.00
48077;BME280;33854;57.708;12.008;2023-02-19T14:36:10;93779.25;;;4.80;100.00
48077;BME280;33854;57.708;12.008;2023-02-19T14:38:47;93821.69;;;4.91;100.00
48077;BME280;33854;57.708;12.008;2023-02-19T14:41:15;93855.88;;;4.93;100.00
48077;BME280;33854;57.708;12.008;2023-02-19T14:43:42;93848.47;;;5.03;100.00
48077;BME280;33854;57.708;12.008;2023-02-19T14:46:33;93859.81;;;5.02;100.00
48077;BME280;33854;57.708;12.008;2023-02-19T14:49:12;93845.91;;;5.03;100.00
48077;BME280;33854;57.708;12.008;2023-02-19T14:51:41;93866.56;;;5.03;100.00
48077;BME280;33854;57.708;12.008;2023-02-19T14:54:13;93891.22;;;4.99;100.00
48077;BME280;33854;57.708;12.008;2023-02-19T14:56:43;93887.25;;;4.96;100.00
48077;BME280;33854;57.708;12.008;2023-02-19T14:59:24;93844.72;;;4.99;100.00
48077;BME280;33854;57.708;12.008;2023-02-19T15:04:28;93760.69;;;5.03;100.00
48077;BME280;33854;57.708;12.008;2023-02-19T15:06:56;93729.84;;;5.14;100.00
48077;BME280;33854;57.708;12.008;2023-02-19T15:09:30;93696.88;;;5.16;100.00